createdAt,value
2022-12-01T00:00:18.944Z,99849.47
2022-12-01T00:03:21.959Z,99848.13
2022-12-01T00:06:24.312Z,99858.47
2022-12-01T00:09:44.768Z,99862.88
2022-12-01T00:12:46.923Z,99857.06
2022-12-01T00:15:49.124Z,99856.41
2022-12-01T00:18:52.640Z,99856.94
2022-12-01T00:21:54.771Z,99868.56
2022-12-01T00:24:56.908Z,99867.84
2022-12-01T00:27:59.215Z,99870.34
2022-12-01T00:31:01.367Z,99882.31
2022-12-01T00:34:06.894Z,99880.66
2022-12-01T00:37:13.062Z,99891.66
2022-12-01T00:40:15.275Z,99890.00
2022-12-01T00:43:17.600Z,99895.50
2022-12-01T00:46:20.234Z,99899.63
2022-12-01T00:49:22.514Z,99906.75
2022-12-01T00:52:24.665Z,99905.62
2022-12-01T00:55:26.895Z,99907.25
2022-12-01T00:58:29.034Z,99906.84
2022-12-01T01:01:31.291Z,99913.19
2022-12-01T01:04:35.150Z,99909.75
2022-12-01T01:07:37.353Z,99910.56
2022-12-01T01:10:40.626Z,99904.69
2022-12-01T01:13:42.780Z,99900.38
2022-12-01T01:16:44.939Z,99887.81
2022-12-01T01:19:47.455Z,99898.06
2022-12-01T01:22:49.919Z,99896.03
2022-12-01T01:25:52.176Z,99887.03
2022-12-01T01:28:56.861Z,99884.63
2022-12-01T01:31:59.073Z,99889.19
2022-12-01T01:35:01.221Z,99885.50
2022-12-01T01:38:03.523Z,99876.81
2022-12-01T01:41:06.624Z,99881.75
2022-12-01T01:44:46.777Z,99880.25
2022-12-01T01:47:50.410Z,99872.84
2022-12-01T01:50:52.706Z,99884.38
2022-12-01T01:53:58.613Z,99892.59
2022-12-01T01:57:01.049Z,99888.81
2022-12-01T02:00:08.014Z,99894.72
2022-12-01T02:03:13.361Z,99888.81
2022-12-01T02:06:15.510Z,99884.84
2022-12-01T02:09:17.699Z,99883.31
2022-12-01T02:12:44.220Z,99882.38
2022-12-01T02:15:46.302Z,99876.78
2022-12-01T02:19:09.346Z,99893.31
2022-12-01T02:22:40.883Z,99890.12
2022-12-01T02:25:50.657Z,99890.47
2022-12-01T02:29:04.893Z,99891.34
2022-12-01T02:32:10.152Z,99886.22
2022-12-01T02:35:38.246Z,99887.88
2022-12-01T02:38:43.428Z,99881.34
2022-12-01T02:41:51.367Z,99885.25
2022-12-01T02:44:53.986Z,99886.22
2022-12-01T02:47:57.421Z,99879.94
2022-12-01T02:51:21.948Z,99876.88
2022-12-01T02:54:24.481Z,99874.50
2022-12-01T02:57:26.711Z,99871.63
2022-12-01T03:00:30.618Z,99861.06
2022-12-01T03:03:45.872Z,99867.09
2022-12-01T03:07:17.490Z,99858.13
2022-12-01T03:10:27.709Z,99853.38
2022-12-01T03:13:47.020Z,99859.59
2022-12-01T03:16:53.563Z,99849.78
2022-12-01T03:20:08.705Z,99846.38
2022-12-01T03:23:20.534Z,99852.19
2022-12-01T03:26:24.722Z,99854.59
2022-12-01T03:29:48.086Z,99861.31
2022-12-01T03:32:54.974Z,99852.09
2022-12-01T03:36:08.043Z,99853.78
2022-12-01T03:39:14.912Z,99853.59
2022-12-01T03:42:22.836Z,99852.16
2022-12-01T03:45:31.430Z,99850.88
2022-12-01T03:48:34.164Z,99849.13
2022-12-01T03:51:52.195Z,99844.12
2022-12-01T03:55:01.325Z,99848.25
2022-12-01T03:58:12.943Z,99844.12
2022-12-01T04:01:15.214Z,99849.47
2022-12-01T04:04:17.466Z,99846.97
2022-12-01T04:07:21.273Z,99841.63
2022-12-01T04:10:26.350Z,99841.87
2022-12-01T04:13:28.481Z,99844.25
2022-12-01T04:16:30.716Z,99838.78
2022-12-01T04:19:32.927Z,99845.31
2022-12-01T04:22:35.070Z,99842.94
2022-12-01T04:25:37.225Z,99844.94
2022-12-01T04:28:39.380Z,99849.09
2022-12-01T04:31:41.698Z,99856.00
2022-12-01T04:34:44.074Z,99855.75
2022-12-01T04:37:46.253Z,99857.41
2022-12-01T04:40:48.427Z,99856.81
2022-12-01T04:43:53.571Z,99855.87
2022-12-01T04:46:55.825Z,99869.84
2022-12-01T04:49:58.016Z,99875.47
2022-12-01T04:53:00.221Z,99867.75
2022-12-01T04:56:02.595Z,99874.97
2022-12-01T04:59:04.831Z,99869.38
2022-12-01T05:02:07.744Z,99873.53
2022-12-01T05:05:11.117Z,99866.03
2022-12-01T05:08:13.322Z,99864.50
2022-12-01T05:11:16.250Z,99867.69
2022-12-01T05:14:18.422Z,99872.94
2022-12-01T05:17:20.591Z,99880.53
2022-12-01T05:20:43.339Z,99883.50
2022-12-01T05:23:45.757Z,99890.34
2022-12-01T05:26:48.099Z,99886.00
2022-12-01T05:29:50.518Z,99883.50
2022-12-01T05:32:53.133Z,99884.44
2022-12-01T05:35:55.714Z,99870.72
2022-12-01T05:38:57.849Z,99869.22
2022-12-01T05:41:59.973Z,99872.53
2022-12-01T05:45:02.199Z,99863.16
2022-12-01T05:48:04.546Z,99871.72
2022-12-01T05:51:11.231Z,99872.72
2022-12-01T05:54:13.471Z,99880.50
2022-12-01T05:57:15.648Z,99880.47
2022-12-01T06:00:18.289Z,99882.56
2022-12-01T06:03:20.436Z,99883.25
2022-12-01T06:06:22.602Z,99879.44
2022-12-01T06:09:25.245Z,99886.78
2022-12-01T06:12:27.668Z,99897.25
2022-12-01T06:15:29.892Z,99898.19
2022-12-01T06:18:34.464Z,99899.50
2022-12-01T06:21:36.602Z,99900.66
2022-12-01T06:24:38.825Z,99897.53
2022-12-01T06:27:41.059Z,99898.62
2022-12-01T06:30:43.579Z,99902.19
2022-12-01T06:33:45.712Z,99908.59
2022-12-01T06:36:47.978Z,99894.59
2022-12-01T06:39:50.350Z,99903.38
2022-12-01T06:42:52.892Z,99896.38
2022-12-01T06:46:00.896Z,99893.56
2022-12-01T06:49:04.548Z,99882.97
2022-12-01T06:52:06.810Z,99886.00
2022-12-01T06:55:09.283Z,99888.59
2022-12-01T06:58:11.675Z,99893.34
2022-12-01T07:01:13.944Z,99900.94
2022-12-01T07:04:16.221Z,99895.84
2022-12-01T07:07:18.378Z,99897.25
2022-12-01T07:10:20.520Z,99893.84
2022-12-01T07:13:22.692Z,99902.63
2022-12-01T07:16:24.969Z,99897.03
2022-12-01T07:19:27.246Z,99892.78
2022-12-01T07:22:32.818Z,99899.44
2022-12-01T07:25:35.222Z,99900.13
2022-12-01T07:28:37.381Z,99896.88
2022-12-01T07:31:39.649Z,99900.34
2022-12-01T07:34:41.872Z,99885.56
2022-12-01T07:37:44.030Z,99897.16
2022-12-01T07:40:46.183Z,99896.06
2022-12-01T07:43:48.626Z,99898.25
2022-12-01T07:46:50.800Z,99890.94
2022-12-01T07:49:52.973Z,99900.38
2022-12-01T07:52:55.108Z,99898.44
2022-12-01T07:55:58.323Z,99896.97
2022-12-01T07:59:00.539Z,99902.28
2022-12-01T08:02:02.748Z,99898.56
2022-12-01T08:05:05.321Z,99900.06
2022-12-01T08:08:07.713Z,99907.69
2022-12-01T08:11:16.173Z,99903.31
2022-12-01T08:14:18.317Z,99907.69
2022-12-01T08:17:20.752Z,99912.25
2022-12-01T08:20:24.205Z,99911.44
2022-12-01T08:23:26.493Z,99904.94
2022-12-01T08:26:28.672Z,99910.28
2022-12-01T08:29:30.838Z,99902.19
2022-12-01T08:32:33.025Z,99902.34
2022-12-01T08:35:36.937Z,99908.53
2022-12-01T08:38:39.094Z,99903.44
2022-12-01T08:41:41.305Z,99910.47
2022-12-01T08:44:43.522Z,99916.97
2022-12-01T08:47:45.668Z,99920.00
2022-12-01T08:50:47.864Z,99907.16
2022-12-01T08:53:50.513Z,99903.75
2022-12-01T08:56:52.735Z,99903.63
2022-12-01T08:59:54.899Z,99905.41
2022-12-01T09:02:57.135Z,99902.22
2022-12-01T09:06:23.941Z,99904.25
2022-12-01T09:09:29.171Z,99907.13
2022-12-01T09:12:31.375Z,99906.50
2022-12-01T09:15:33.978Z,99905.47
2022-12-01T09:18:36.239Z,99903.81
2022-12-01T09:21:38.595Z,99900.34
2022-12-01T09:24:40.799Z,99901.75
2022-12-01T09:27:43.416Z,99904.56
2022-12-01T09:30:46.775Z,99899.94
2022-12-01T09:33:54.613Z,99887.69
2022-12-01T09:36:58.330Z,99887.41
2022-12-01T09:40:00.604Z,99890.09
2022-12-01T09:43:05.782Z,99897.69
2022-12-01T09:46:14.392Z,99890.03
2022-12-01T09:49:25.273Z,99882.78
2022-12-01T09:52:29.919Z,99892.03
2022-12-01T09:55:32.218Z,99892.22
2022-12-01T09:58:34.770Z,99884.94
2022-12-01T10:01:38.642Z,99881.81
2022-12-01T10:04:43.271Z,99881.78
2022-12-01T10:07:49.359Z,99876.22
2022-12-01T10:10:53.210Z,99875.84
2022-12-01T10:13:55.408Z,99869.97
2022-12-01T10:17:14.218Z,99871.16
2022-12-01T10:20:44.650Z,99870.87
2022-12-01T10:23:59.946Z,99869.97
2022-12-01T10:27:22.451Z,99863.72
2022-12-01T10:30:24.949Z,99867.53
2022-12-01T10:33:34.642Z,99857.25
2022-12-01T10:36:36.862Z,99858.44
2022-12-01T10:39:41.957Z,99861.91
2022-12-01T10:42:46.562Z,99858.84
2022-12-01T10:45:48.849Z,99853.19
2022-12-01T10:48:56.679Z,99848.22
2022-12-01T10:51:58.871Z,99846.66
2022-12-01T10:55:01.545Z,99843.31
2022-12-01T10:58:16.358Z,99853.56
2022-12-01T11:01:22.278Z,99853.22
2022-12-01T11:04:46.069Z,99846.97
2022-12-01T11:07:49.438Z,99840.75
2022-12-01T11:10:52.210Z,99840.37
2022-12-01T11:13:55.090Z,99839.03
2022-12-01T11:16:57.316Z,99840.56
2022-12-01T11:20:21.564Z,99836.56
2022-12-01T11:23:26.679Z,99829.56
2022-12-01T11:26:31.640Z,99821.66
2022-12-01T11:29:38.322Z,99818.75
2022-12-01T11:32:40.560Z,99817.25
2022-12-01T11:35:47.571Z,99819.91
2022-12-01T11:38:50.644Z,99822.31
2022-12-01T11:41:57.750Z,99818.28
2022-12-01T11:45:19.182Z,99814.53
2022-12-01T11:48:25.882Z,99808.97
2022-12-01T11:51:37.808Z,99817.06
2022-12-01T11:54:55.547Z,99811.69
2022-12-01T11:58:02.057Z,99812.84
2022-12-01T12:01:06.173Z,99805.34
2022-12-01T12:04:30.212Z,99807.84
2022-12-01T12:07:54.159Z,99800.28
2022-12-01T12:11:14.958Z,99801.94
2022-12-01T12:14:26.085Z,99807.84
2022-12-01T12:18:03.677Z,99808.59
2022-12-01T12:21:17.814Z,99800.25
2022-12-01T12:24:48.318Z,99803.22
2022-12-01T12:28:24.781Z,99794.97
2022-12-01T12:31:37.281Z,99797.94
2022-12-01T12:35:09.829Z,99799.56
2022-12-01T12:38:47.344Z,99792.97
2022-12-01T12:41:53.078Z,99797.28
2022-12-01T12:45:15.292Z,99793.16
2022-12-01T12:49:18.199Z,99801.53
2022-12-01T12:52:17.021Z,99798.72
2022-12-01T12:55:33.364Z,99795.78
2022-12-01T12:58:43.564Z,99794.28
2022-12-01T13:02:02.206Z,99803.66
2022-12-01T13:05:36.999Z,99800.69
2022-12-01T13:08:48.288Z,99799.53
2022-12-01T13:11:55.267Z,99794.13
2022-12-01T13:15:20.997Z,99802.50
2022-12-01T13:18:23.268Z,99793.31
2022-12-01T13:21:34.462Z,99802.22
2022-12-01T13:24:36.695Z,99791.16
2022-12-01T13:27:41.282Z,99789.66
2022-12-01T13:31:04.445Z,99782.25
2022-12-01T13:34:06.683Z,99784.75
2022-12-01T13:37:10.411Z,99787.19
2022-12-01T13:40:21.242Z,99782.72
2022-12-01T13:43:23.458Z,99782.59
2022-12-01T13:46:30.280Z,99785.03
2022-12-01T13:49:40.470Z,99779.94
2022-12-01T13:52:49.555Z,99782.75
2022-12-01T13:56:03.968Z,99785.72
2022-12-01T13:59:39.026Z,99787.69
2022-12-01T14:02:41.323Z,99786.53
2022-12-01T14:06:07.946Z,99783.38
2022-12-01T14:09:16.270Z,99786.16
2022-12-01T14:12:25.831Z,99780.66
2022-12-01T14:15:53.198Z,99792.09
2022-12-01T14:18:57.192Z,99790.22
2022-12-01T14:22:00.536Z,99790.53
2022-12-01T14:25:06.246Z,99788.72
2022-12-01T14:28:19.528Z,99782.34
2022-12-01T14:31:33.940Z,99779.87
2022-12-01T14:34:37.401Z,99780.06
2022-12-01T14:37:43.362Z,99784.94
2022-12-01T14:40:45.512Z,99784.09
2022-12-01T14:44:04.017Z,99782.19
2022-12-01T14:47:41.631Z,99788.53
2022-12-01T14:50:53.666Z,99786.66
2022-12-01T14:53:57.274Z,99783.72
2022-12-01T14:57:06.273Z,99792.50
2022-12-01T15:00:21.916Z,99786.97
2022-12-01T15:03:30.500Z,99785.25
2022-12-01T15:06:35.670Z,99787.28
2022-12-01T15:10:02.030Z,99788.06
2022-12-01T15:13:33.291Z,99779.87
2022-12-01T15:16:40.950Z,99784.66
2022-12-01T15:19:44.169Z,99778.66
2022-12-01T15:22:46.419Z,99779.28
2022-12-01T15:25:48.591Z,99789.47
2022-12-01T15:28:51.391Z,99787.34
2022-12-01T15:31:59.823Z,99784.06
2022-12-01T15:35:04.608Z,99787.50
2022-12-01T15:38:16.984Z,99781.31
2022-12-01T15:41:28.964Z,99785.97
2022-12-01T15:44:34.826Z,99786.56
2022-12-01T15:47:43.565Z,99787.75
2022-12-01T15:50:49.981Z,99786.78
2022-12-01T15:53:58.907Z,99790.56
2022-12-01T15:57:01.450Z,99794.59
2022-12-01T16:00:04.169Z,99788.50
2022-12-01T16:03:06.402Z,99789.84
2022-12-01T16:06:12.116Z,99791.72
2022-12-01T16:09:41.599Z,99798.25
2022-12-01T16:12:43.918Z,99799.38
2022-12-01T16:15:46.125Z,99795.22
2022-12-01T16:19:10.249Z,99797.59
2022-12-01T16:22:16.250Z,99793.16
2022-12-01T16:25:27.272Z,99791.50
2022-12-01T16:28:35.858Z,99789.66
2022-12-01T16:31:58.694Z,99792.03
2022-12-01T16:35:01.139Z,99793.13
2022-12-01T16:38:20.688Z,99789.84
2022-12-01T16:41:44.627Z,99799.22
2022-12-01T16:44:48.152Z,99803.81
2022-12-01T16:47:50.665Z,99803.78
2022-12-01T16:50:53.554Z,99800.66
2022-12-01T16:53:55.956Z,99796.22
2022-12-01T16:56:58.269Z,99796.78
2022-12-01T17:00:00.489Z,99795.13
2022-12-01T17:03:04.443Z,99799.00
2022-12-01T17:06:07.314Z,99804.25
2022-12-01T17:09:09.567Z,99803.25
2022-12-01T17:12:11.742Z,99812.38
2022-12-01T17:15:15.162Z,99809.59
2022-12-01T17:18:18.673Z,99804.22
2022-12-01T17:21:21.098Z,99810.44
2022-12-01T17:24:23.247Z,99803.69
2022-12-01T17:27:27.713Z,99807.12
2022-12-01T17:30:30.054Z,99806.19
2022-12-01T17:33:32.972Z,99810.31
2022-12-01T17:36:35.336Z,99805.31
2022-12-01T17:39:37.790Z,99812.38
2022-12-01T17:42:39.934Z,99805.88
2022-12-01T17:45:43.124Z,99811.00
2022-12-01T17:48:46.505Z,99807.00
2022-12-01T17:51:48.740Z,99807.69
2022-12-01T17:54:51.197Z,99809.87
2022-12-01T17:57:53.888Z,99809.87
2022-12-01T18:00:56.148Z,99812.09
2022-12-01T18:03:59.071Z,99809.19
2022-12-01T18:07:01.816Z,99813.47
2022-12-01T18:10:04.622Z,99812.38
2022-12-01T18:13:06.834Z,99812.78
2022-12-01T18:16:10.766Z,99810.03
2022-12-01T18:19:13.286Z,99804.78
2022-12-01T18:22:15.687Z,99810.13
2022-12-01T18:25:18.092Z,99808.34
2022-12-01T18:28:20.324Z,99805.88
2022-12-01T18:31:23.478Z,99810.72
2022-12-01T18:34:29.385Z,99807.66
2022-12-01T18:37:31.857Z,99812.63
2022-12-01T18:40:37.101Z,99804.94
2022-12-01T18:43:39.379Z,99813.22
2022-12-01T18:46:41.931Z,99811.97
2022-12-01T18:49:44.464Z,99813.62
2022-12-01T18:52:46.873Z,99808.06
2022-12-01T18:55:49.299Z,99812.34
2022-12-01T18:59:00.838Z,99813.03
2022-12-01T19:02:04.432Z,99815.66
2022-12-01T19:05:08.458Z,99814.41
2022-12-01T19:08:11.637Z,99808.06
2022-12-01T19:11:14.875Z,99806.97
2022-12-01T19:14:18.653Z,99804.38
2022-12-01T19:17:21.087Z,99816.66
2022-12-01T19:20:24.619Z,99820.09
2022-12-01T19:23:27.282Z,99812.66
2022-12-01T19:26:30.114Z,99819.41
2022-12-01T19:29:32.703Z,99820.25
2022-12-01T19:32:34.962Z,99826.72
2022-12-01T19:35:37.316Z,99821.72
2022-12-01T19:38:40.140Z,99824.22
2022-12-01T19:41:42.566Z,99822.03
2022-12-01T19:44:45.479Z,99815.50
2022-12-01T19:47:48.040Z,99815.25
2022-12-01T19:50:50.446Z,99820.34
2022-12-01T19:53:54.436Z,99824.66
2022-12-01T19:56:57.400Z,99823.09
2022-12-01T20:00:00.272Z,99825.87
2022-12-01T20:03:04.044Z,99819.91
2022-12-01T20:06:14.406Z,99821.16
2022-12-01T20:09:16.913Z,99825.72
2022-12-01T20:12:19.569Z,99831.53
2022-12-01T20:15:21.890Z,99824.47
2022-12-01T20:18:24.387Z,99824.19
2022-12-01T20:21:30.351Z,99829.97
2022-12-01T20:24:32.849Z,99824.84
2022-12-01T20:27:35.880Z,99833.87
2022-12-01T20:30:40.648Z,99828.72
2022-12-01T20:33:43.396Z,99826.53
2022-12-01T20:36:46.084Z,99829.75
2022-12-01T20:39:48.281Z,99831.97
2022-12-01T20:42:50.729Z,99825.59
2022-12-01T20:45:53.235Z,99827.97
2022-12-01T20:48:55.689Z,99831.13
2022-12-01T20:51:58.108Z,99830.75
2022-12-01T20:55:00.536Z,99843.97
2022-12-01T20:58:05.401Z,99842.31
2022-12-01T21:01:15.381Z,99845.75
2022-12-01T21:04:17.895Z,99844.59
2022-12-01T21:07:20.124Z,99843.50
2022-12-01T21:10:22.485Z,99847.38
2022-12-01T21:13:44.320Z,99844.72
2022-12-01T21:16:49.237Z,99857.34
2022-12-01T21:20:22.044Z,99856.19
2022-12-01T21:23:24.601Z,99862.03
2022-12-01T21:26:26.834Z,99863.44
2022-12-01T21:29:43.927Z,99858.75
2022-12-01T21:32:46.917Z,99859.16
2022-12-01T21:35:52.751Z,99856.41
2022-12-01T21:39:00.543Z,99862.63
2022-12-01T21:42:14.389Z,99868.56
2022-12-01T21:45:26.158Z,99864.16
2022-12-01T21:48:35.432Z,99859.72
2022-12-01T21:51:37.860Z,99867.78
2022-12-01T21:54:40.084Z,99862.69
2022-12-01T21:57:45.234Z,99871.84
2022-12-01T22:00:47.448Z,99868.97
2022-12-01T22:03:49.865Z,99872.53
2022-12-01T22:06:53.862Z,99865.34
2022-12-01T22:09:55.994Z,99874.72
2022-12-01T22:12:58.158Z,99871.59
2022-12-01T22:16:00.346Z,99874.94
2022-12-01T22:19:14.687Z,99874.34
2022-12-01T22:22:25.317Z,99876.63
2022-12-01T22:25:28.438Z,99876.31
2022-12-01T22:28:30.680Z,99876.94
2022-12-01T22:31:34.315Z,99875.94
2022-12-01T22:34:36.672Z,99872.34
2022-12-01T22:37:44.432Z,99859.97
2022-12-01T22:40:58.354Z,99864.78
2022-12-01T22:44:01.449Z,99862.81
2022-12-01T22:47:03.894Z,99858.16
2022-12-01T22:50:25.806Z,99853.31
2022-12-01T22:53:31.164Z,99851.56
2022-12-01T22:57:15.468Z,99855.06
2022-12-01T23:00:21.165Z,99852.78
2022-12-01T23:03:23.407Z,99847.87
2022-12-01T23:06:44.459Z,99848.16
2022-12-01T23:09:46.628Z,99846.13
2022-12-01T23:12:50.987Z,99852.53
2022-12-01T23:15:54.091Z,99855.31
2022-12-01T23:18:56.373Z,99854.09
2022-12-01T23:21:58.531Z,99854.13
2022-12-01T23:25:02.275Z,99851.47
2022-12-01T23:28:06.617Z,99848.84
2022-12-01T23:31:09.302Z,99849.66
2022-12-01T23:34:14.435Z,99849.78
2022-12-01T23:37:33.769Z,99859.47
2022-12-01T23:40:36.343Z,99853.56
2022-12-01T23:43:40.449Z,99845.81
2022-12-01T23:46:42.888Z,99860.25
2022-12-01T23:49:46.429Z,99857.84
2022-12-01T23:52:49.026Z,99859.31
2022-12-01T23:55:51.515Z,99860.00
2022-12-01T23:58:54.807Z,99871.06
